Time;durP1;ratioP1;P1;durP2;ratioP2;P2;SDS_P1;SDS_P2;PMS_P1;PMS_P2;Temp;Humidity;BMP_temperature;BMP_pressure;BME280_temperature;BME280_humidity;BME280_pressure;Samples;Min_cycle;Max_cycle;Signal;HPM_P1;HPM_P2
2023/11/17 00:01:52;;;;;;;0.30;0.30;;;8.40;99.90;;;;;;4973804;28;20558;-59
2023/11/17 00:04:19;;;;;;;0.30;0.30;;;8.30;99.90;;;;;;4973400;28;20173;-59
2023/11/17 00:06:45;;;;;;;0.30;0.30;;;8.30;99.90;;;;;;4973444;28;20239;-59
2023/11/17 00:09:11;;;;;;;0.40;0.40;;;8.20;99.90;;;;;;4973205;28;20579;-58
2023/11/17 00:11:37;;;;;;;0.30;0.30;;;7.90;99.90;;;;;;4973442;28;20165;-59
2023/11/17 00:14:04;;;;;;;0.30;0.30;;;7.90;99.90;;;;;;4973369;28;20918;-58
2023/11/17 00:16:30;;;;;;;0.30;0.30;;;7.80;99.90;;;;;;4973450;28;20213;-59
2023/11/17 00:18:55;;;;;;;0.30;0.30;;;7.60;99.90;;;;;;4973232;28;20222;-58
2023/11/17 00:21:21;;;;;;;0.30;0.30;;;7.20;99.90;;;;;;4973304;28;20176;-58
2023/11/17 00:23:47;;;;;;;0.30;0.30;;;7.10;99.90;;;;;;4972914;28;20180;-59
2023/11/17 00:26:13;;;;;;;0.30;0.30;;;7.00;99.90;;;;;;4973255;28;20710;-59
2023/11/17 00:28:39;;;;;;;0.30;0.30;;;7.00;99.90;;;;;;4972844;28;20215;-59
2023/11/17 00:31:14;;;;;;;0.30;0.30;;;6.90;99.90;;;;;;4972822;28;20204;-59
2023/11/17 00:33:40;;;;;;;0.30;0.30;;;6.90;99.90;;;;;;4973217;28;20186;-58
2023/11/17 00:36:12;;;;;;;0.30;0.30;;;7.00;99.90;;;;;;4973418;28;20619;-58
2023/11/17 00:38:39;;;;;;;0.30;0.30;;;6.90;99.90;;;;;;4972989;28;20251;-58
2023/11/17 00:41:07;;;;;;;0.30;0.30;;;6.90;99.90;;;;;;4973242;28;20180;-59
2023/11/17 00:43:33;;;;;;;0.30;0.30;;;6.90;99.90;;;;;;4972861;28;20666;-58
2023/11/17 00:45:59;;;;;;;0.30;0.30;;;6.80;99.90;;;;;;4972706;28;20185;-58
2023/11/17 00:48:28;;;;;;;0.30;0.30;;;6.80;99.90;;;;;;4972355;28;20458;-58
2023/11/17 00:50:58;;;;;;;0.30;0.30;;;6.70;99.90;;;;;;4972805;28;20262;-58
2023/11/17 00:53:29;;;;;;;0.40;0.40;;;6.60;99.90;;;;;;4972454;28;20194;-59
2023/11/17 00:55:59;;;;;;;0.30;0.30;;;6.60;99.90;;;;;;4956391;28;20208;-59
2023/11/17 00:58:25;;;;;;;0.30;0.30;;;6.60;99.90;;;;;;4973241;28;20692;-59
2023/11/17 01:00:56;;;;;;;0.30;0.30;;;6.70;99.90;;;;;;4972837;28;20184;-58
2023/11/17 01:03:22;;;;;;;0.40;0.40;;;6.60;99.90;;;;;;4970062;28;20331;-59
2023/11/17 01:05:48;;;;;;;0.30;0.30;;;6.50;99.90;;;;;;4972782;28;20172;-58
2023/11/17 01:08:14;;;;;;;0.40;0.40;;;6.40;99.90;;;;;;4972662;28;20412;-59
2023/11/17 01:10:40;;;;;;;0.40;0.40;;;6.40;99.90;;;;;;4972875;28;20189;-59
2023/11/17 01:13:07;;;;;;;0.40;0.40;;;6.50;99.90;;;;;;4972755;28;20684;-59
2023/11/17 01:15:37;;;;;;;0.32;0.32;;;6.50;99.90;;;;;;4973112;28;20251;-59
2023/11/17 01:18:07;;;;;;;0.30;0.30;;;6.30;99.90;;;;;;4972450;28;20181;-58
2023/11/17 01:20:34;;;;;;;0.30;0.30;;;6.40;99.90;;;;;;4972665;28;20211;-58
2023/11/17 01:23:03;;;;;;;0.30;0.30;;;6.40;99.90;;;;;;4972389;28;20201;-59
2023/11/17 01:25:32;;;;;;;0.30;0.30;;;6.20;99.90;;;;;;4955601;28;20176;-59
2023/11/17 01:28:00;;;;;;;0.30;0.30;;;6.00;99.90;;;;;;4972649;28;20174;-58
2023/11/17 01:30:28;;;;;;;0.30;0.30;;;6.00;99.90;;;;;;4972441;28;20688;-58
2023/11/17 01:32:54;;;;;;;0.30;0.30;;;6.20;99.90;;;;;;4972318;28;20216;-58
2023/11/17 01:35:20;;;;;;;0.30;0.30;;;6.30;99.90;;;;;;4972453;28;20204;-59
2023/11/17 01:37:45;;;;;;;0.30;0.30;;;6.20;99.90;;;;;;4972497;28;20559;-59
2023/11/17 01:40:13;;;;;;;4.10;1.03;;;6.30;99.90;;;;;;4972319;28;20560;-59
2023/11/17 01:42:39;;;;;;;0.30;0.30;;;6.40;99.90;;;;;;4972248;28;20266;-58
2023/11/17 01:45:09;;;;;;;0.30;0.30;;;6.30;99.90;;;;;;4975383;28;20187;-58
2023/11/17 01:47:39;;;;;;;0.30;0.30;;;6.20;99.90;;;;;;4976136;28;20684;-58
2023/11/17 01:50:09;;;;;;;0.30;0.30;;;6.30;99.90;;;;;;4975896;28;20291;-58
2023/11/17 01:52:37;;;;;;;0.30;0.30;;;6.40;99.90;;;;;;4975703;28;20180;-58
2023/11/17 01:55:05;;;;;;;0.38;0.38;;;6.50;99.90;;;;;;4975978;28;20624;-58
2023/11/17 01:57:35;;;;;;;0.30;0.30;;;6.40;99.90;;;;;;4975795;28;20179;-58
2023/11/17 02:00:06;;;;;;;0.30;0.30;;;6.40;99.90;;;;;;4975859;28;20605;-58
2023/11/17 02:02:33;;;;;;;0.30;0.30;;;6.30;99.90;;;;;;4975942;28;20177;-58
2023/11/17 02:05:00;;;;;;;0.30;0.30;;;6.20;99.90;;;;;;4975869;28;20658;-58
2023/11/17 02:07:36;;;;;;;0.40;0.40;;;6.10;99.90;;;;;;4975656;28;20179;-59
2023/11/17 02:10:29;;;;;;;0.30;0.30;;;6.10;99.90;;;;;;4975597;28;20220;-59
2023/11/17 02:13:15;;;;;;;0.30;0.30;;;6.10;99.90;;;;;;4975268;28;20745;-59
2023/11/17 02:15:41;;;;;;;0.40;0.40;;;6.10;99.90;;;;;;4975605;28;20245;-59
2023/11/17 02:18:13;;;;;;;0.30;0.30;;;6.10;99.90;;;;;;4974883;28;20181;-56
2023/11/17 02:20:41;;;;;;;0.30;0.30;;;6.10;99.90;;;;;;4975548;28;20231;-58
2023/11/17 02:23:10;;;;;;;0.30;0.30;;;6.00;99.90;;;;;;4975088;28;20184;-58
2023/11/17 02:26:19;;;;;;;0.30;0.30;;;6.00;99.90;;;;;;4975488;28;20187;-58
2023/11/17 02:29:00;;;;;;;0.30;0.30;;;6.00;99.90;;;;;;4950258;28;20676;-59
2023/11/17 02:31:31;;;;;;;0.30;0.30;;;6.10;99.90;;;;;;4975415;28;20180;-59
2023/11/17 02:34:05;;;;;;;0.30;0.30;;;6.10;99.90;;;;;;4974182;28;20274;-58
2023/11/17 02:36:32;;;;;;;0.30;0.30;;;6.20;99.90;;;;;;4975294;28;20193;-59
2023/11/17 02:39:12;;;;;;;0.30;0.30;;;6.00;99.90;;;;;;4975274;28;20251;-59
2023/11/17 02:41:38;;;;;;;0.40;0.40;;;5.90;99.90;;;;;;4975293;28;20174;-58
2023/11/17 02:44:11;;;;;;;0.40;0.40;;;5.70;99.90;;;;;;4974897;28;20210;-58
2023/11/17 02:46:37;;;;;;;0.30;0.30;;;5.80;99.90;;;;;;4975180;28;20176;-58
2023/11/17 02:49:04;;;;;;;0.40;0.40;;;5.70;99.90;;;;;;4975005;28;20710;-58
2023/11/17 02:51:43;;;;;;;0.40;0.40;;;5.70;99.90;;;;;;4975036;28;20173;-58
2023/11/17 02:54:09;;;;;;;0.30;0.30;;;5.60;99.90;;;;;;4974511;28;20231;-59
2023/11/17 02:56:38;;;;;;;0.40;0.40;;;5.50;99.90;;;;;;4974882;28;20198;-58
2023/11/17 02:59:10;;;;;;;0.30;0.30;;;5.50;99.90;;;;;;4974830;28;20200;-58
2023/11/17 03:01:39;;;;;;;0.40;0.40;;;5.40;99.90;;;;;;4974770;28;20180;-59
2023/11/17 03:04:13;;;;;;;0.30;0.30;;;5.40;99.90;;;;;;4974360;28;20180;-58
2023/11/17 03:06:45;;;;;;;0.40;0.40;;;5.40;99.90;;;;;;4974743;28;20184;-58
2023/11/17 03:09:21;;;;;;;0.38;0.38;;;5.30;99.90;;;;;;4974596;28;20206;-58
2023/11/17 03:11:49;;;;;;;0.30;0.30;;;5.30;99.90;;;;;;4974532;28;20191;-58
2023/11/17 03:14:15;;;;;;;0.30;0.30;;;5.40;99.90;;;;;;4974299;28;20177;-59
2023/11/17 03:16:41;;;;;;;0.40;0.40;;;5.50;99.90;;;;;;4974330;28;20578;-58
2023/11/17 03:19:10;;;;;;;0.88;0.60;;;5.50;99.90;;;;;;4974235;28;20224;-58
2023/11/17 03:21:41;;;;;;;0.50;0.50;;;5.50;99.90;;;;;;4978276;23;20249;-58
2023/11/17 03:24:23;;;;;;;0.30;0.30;;;5.60;99.90;;;;;;4953897;29;20185;-58
2023/11/17 03:26:54;;;;;;;0.30;0.30;;;5.50;99.90;;;;;;4953621;29;20242;-59
2023/11/17 03:29:21;;;;;;;0.40;0.40;;;5.70;99.90;;;;;;4954424;29;20681;-59
2023/11/17 03:31:48;;;;;;;0.35;0.35;;;5.80;99.90;;;;;;4954663;28;20244;-58
2023/11/17 03:34:23;;;;;;;0.30;0.30;;;5.90;99.90;;;;;;4954421;29;20221;-58
2023/11/17 03:37:01;;;;;;;0.30;0.30;;;6.00;99.90;;;;;;4954585;29;20169;-58
2023/11/17 03:39:31;;;;;;;0.30;0.30;;;6.10;99.90;;;;;;4954743;29;20262;-58
2023/11/17 03:41:58;;;;;;;0.40;0.40;;;6.20;99.90;;;;;;4954371;29;20639;-56
2023/11/17 03:44:24;;;;;;;0.30;0.30;;;6.30;99.90;;;;;;4954372;29;20180;-58
2023/11/17 03:46:51;;;;;;;0.30;0.30;;;6.50;99.90;;;;;;4954506;29;20253;-58
2023/11/17 03:49:20;;;;;;;0.30;0.30;;;6.50;99.90;;;;;;4954525;29;20179;-59
2023/11/17 03:51:50;;;;;;;0.30;0.30;;;6.60;99.90;;;;;;4954232;29;20204;-58
2023/11/17 03:54:19;;;;;;;0.30;0.30;;;6.50;99.90;;;;;;4954035;29;20616;-58
2023/11/17 03:56:47;;;;;;;0.30;0.30;;;6.50;99.90;;;;;;4954322;29;20170;-58
2023/11/17 03:59:16;;;;;;;0.40;0.40;;;6.60;99.90;;;;;;4954334;29;20173;-59
2023/11/17 04:01:46;;;;;;;0.30;0.30;;;6.70;99.90;;;;;;4953988;29;20209;-58
2023/11/17 04:04:15;;;;;;;0.35;0.35;;;6.70;99.90;;;;;;4953783;29;20538;-59
2023/11/17 04:06:41;;;;;;;0.30;0.30;;;6.60;99.90;;;;;;4953838;28;20235;-58
2023/11/17 04:09:07;;;;;;;0.30;0.30;;;6.50;99.90;;;;;;4954205;29;20643;-59
2023/11/17 04:11:36;;;;;;;0.30;0.30;;;6.60;99.90;;;;;;4953987;29;20429;-58
2023/11/17 04:14:05;;;;;;;0.40;0.40;;;6.50;99.90;;;;;;4936536;29;20185;-58
2023/11/17 04:16:31;;;;;;;0.82;0.60;;;6.40;99.90;;;;;;4953436;29;20243;-56
2023/11/17 04:18:58;;;;;;;0.30;0.30;;;6.40;99.90;;;;;;4953985;29;20558;-59
2023/11/17 04:21:23;;;;;;;0.30;0.30;;;6.30;99.90;;;;;;4953757;28;20220;-58
2023/11/17 04:23:49;;;;;;;0.30;0.30;;;6.40;99.90;;;;;;4953636;29;20176;-58
2023/11/17 04:26:15;;;;;;;0.30;0.30;;;6.30;99.90;;;;;;4953302;29;20177;-58
2023/11/17 04:28:40;;;;;;;0.30;0.30;;;6.30;99.90;;;;;;4933089;29;20176;-58
2023/11/17 04:31:10;;;;;;;0.30;0.30;;;6.40;99.90;;;;;;4945645;29;20192;-58
2023/11/17 04:33:36;;;;;;;0.30;0.30;;;6.40;99.90;;;;;;4953470;28;20177;-58
2023/11/17 04:36:02;;;;;;;0.40;0.40;;;6.40;99.90;;;;;;4953625;29;20270;-57
2023/11/17 04:38:29;;;;;;;0.40;0.40;;;6.40;99.90;;;;;;4953673;29;20616;-58
2023/11/17 04:40:55;;;;;;;0.30;0.30;;;6.30;99.90;;;;;;4953714;29;20585;-58
2023/11/17 04:43:21;;;;;;;0.30;0.30;;;6.30;99.90;;;;;;4953581;29;20175;-58
2023/11/17 04:45:49;;;;;;;0.30;0.30;;;6.30;99.90;;;;;;4953494;29;20721;-58
2023/11/17 04:48:16;;;;;;;0.30;0.30;;;6.40;99.90;;;;;;4953550;29;20173;-58
2023/11/17 04:50:42;;;;;;;0.30;0.30;;;6.30;99.90;;;;;;4953580;29;20587;-58
2023/11/17 04:53:09;;;;;;;0.30;0.30;;;6.30;99.90;;;;;;4953305;29;20181;-58
2023/11/17 04:55:35;;;;;;;0.30;0.30;;;6.30;99.90;;;;;;4953411;29;20544;-58
2023/11/17 04:58:00;;;;;;;0.40;0.40;;;6.30;99.90;;;;;;4953376;29;20240;-58
2023/11/17 05:00:26;;;;;;;0.30;0.30;;;6.20;99.90;;;;;;4932691;29;20455;-58
2023/11/17 05:02:53;;;;;;;0.40;0.40;;;6.20;99.90;;;;;;4946438;29;20264;-58
2023/11/17 05:05:20;;;;;;;0.40;0.40;;;6.20;99.90;;;;;;4943753;29;20179;-58
2023/11/17 05:07:47;;;;;;;0.30;0.30;;;6.30;99.90;;;;;;4934239;29;20207;-58
2023/11/17 05:10:15;;;;;;;0.40;0.40;;;6.20;99.90;;;;;;4936092;29;20238;-58
2023/11/17 05:12:41;;;;;;;0.30;0.30;;;6.10;99.90;;;;;;4944944;29;20180;-58
2023/11/17 05:15:07;;;;;;;0.30;0.30;;;6.10;99.90;;;;;;4944194;29;20218;-59
2023/11/17 05:17:43;;;;;;;0.30;0.30;;;6.10;99.90;;;;;;4943531;28;20650;-58
2023/11/17 05:20:16;;;;;;;0.30;0.30;;;6.00;99.90;;;;;;4948853;29;20847;-59
2023/11/17 05:22:46;;;;;;;0.30;0.30;;;6.00;99.90;;;;;;4956901;29;20188;-58
2023/11/17 05:25:13;;;;;;;0.40;0.40;;;6.00;99.90;;;;;;4957317;29;20259;-58
2023/11/17 05:27:40;;;;;;;0.30;0.30;;;6.10;99.90;;;;;;4957064;28;20175;-57
2023/11/17 05:30:07;;;;;;;0.30;0.30;;;6.20;99.90;;;;;;4957062;29;20692;-58
2023/11/17 05:32:37;;;;;;;0.30;0.30;;;6.20;99.90;;;;;;4956479;28;20183;-59
2023/11/17 05:35:06;;;;;;;0.30;0.30;;;6.10;99.90;;;;;;4957042;29;20242;-59
2023/11/17 05:37:32;;;;;;;0.30;0.30;;;6.20;99.90;;;;;;4956935;29;20598;-59
2023/11/17 05:39:58;;;;;;;0.93;0.93;;;6.20;99.90;;;;;;4956755;29;20201;-58
2023/11/17 05:42:23;;;;;;;0.33;0.33;;;6.20;99.90;;;;;;4939414;29;20179;-59
2023/11/17 05:44:52;;;;;;;0.40;0.40;;;6.20;99.90;;;;;;4939479;28;20183;-59
2023/11/17 05:47:18;;;;;;;0.30;0.30;;;6.30;99.90;;;;;;4975929;28;20198;-58
2023/11/17 05:49:44;;;;;;;0.30;0.30;;;6.30;99.90;;;;;;4975863;28;20177;-59
2023/11/17 05:52:14;;;;;;;0.30;0.30;;;6.30;99.90;;;;;;4975505;28;20419;-59
2023/11/17 05:54:45;;;;;;;0.40;0.40;;;6.20;99.90;;;;;;4958000;28;20208;-59
2023/11/17 05:57:17;;;;;;;2.05;1.60;;;6.20;99.90;;;;;;4975674;28;20184;-59
2023/11/17 05:59:45;;;;;;;0.32;0.32;;;6.30;99.90;;;;;;4975690;28;20675;-59
2023/11/17 06:02:14;;;;;;;0.40;0.40;;;6.30;99.90;;;;;;4975747;28;20572;-59
2023/11/17 06:04:41;;;;;;;0.30;0.30;;;6.30;99.90;;;;;;4975548;28;20188;-59
2023/11/17 06:07:08;;;;;;;0.30;0.30;;;6.40;99.90;;;;;;4974977;28;20191;-59
2023/11/17 06:09:35;;;;;;;0.38;0.38;;;6.50;99.90;;;;;;4975579;28;20258;-58
2023/11/17 06:12:01;;;;;;;0.50;0.50;;;6.60;99.90;;;;;;4975444;28;20186;-59
2023/11/17 06:14:36;;;;;;;0.30;0.30;;;6.60;99.90;;;;;;4975315;28;20183;-58
2023/11/17 06:17:08;;;;;;;0.30;0.30;;;6.70;99.90;;;;;;4975370;28;20179;-59
2023/11/17 06:19:36;;;;;;;0.40;0.40;;;6.80;99.90;;;;;;4975245;28;20172;-59
2023/11/17 06:22:01;;;;;;;0.30;0.30;;;6.70;99.90;;;;;;4975345;28;20187;-59
2023/11/17 06:24:27;;;;;;;0.30;0.30;;;6.70;99.90;;;;;;4975271;28;20258;-59
2023/11/17 06:26:54;;;;;;;0.83;0.83;;;6.70;99.90;;;;;;4975379;28;20604;-59
2023/11/17 06:29:22;;;;;;;0.30;0.30;;;6.70;99.90;;;;;;4974486;28;20674;-59
2023/11/17 06:31:49;;;;;;;0.30;0.30;;;6.80;99.90;;;;;;4974776;28;20204;-59
2023/11/17 06:34:15;;;;;;;0.40;0.40;;;6.90;99.90;;;;;;4974892;28;20180;-59
2023/11/17 06:36:41;;;;;;;0.30;0.30;;;7.00;99.90;;;;;;4975028;28;20221;-59
2023/11/17 06:39:17;;;;;;;0.30;0.30;;;6.90;99.90;;;;;;4974977;28;20782;-59
2023/11/17 06:41:48;;;;;;;0.40;0.40;;;6.80;99.90;;;;;;4975041;28;20207;-59
2023/11/17 06:44:15;;;;;;;0.30;0.30;;;6.80;99.90;;;;;;4957585;28;20206;-59
2023/11/17 06:46:41;;;;;;;0.35;0.35;;;6.80;99.90;;;;;;4975164;28;20184;-59
2023/11/17 06:49:14;;;;;;;0.30;0.30;;;6.80;99.90;;;;;;4957747;28;20183;-59
2023/11/17 06:51:48;;;;;;;0.40;0.40;;;6.70;99.90;;;;;;4974781;28;20636;-59
2023/11/17 06:54:15;;;;;;;0.40;0.40;;;6.60;99.90;;;;;;4974662;28;20177;-59
2023/11/17 06:56:43;;;;;;;0.35;0.35;;;6.70;99.90;;;;;;4974545;28;20718;-59
2023/11/17 06:59:16;;;;;;;0.40;0.40;;;6.80;99.90;;;;;;4957898;28;20215;-59
2023/11/17 07:01:43;;;;;;;1.27;1.17;;;6.80;99.90;;;;;;4968581;28;20266;-59
2023/11/17 07:04:12;;;;;;;0.50;0.50;;;6.90;99.90;;;;;;4974340;28;20691;-59
2023/11/17 07:06:40;;;;;;;0.30;0.30;;;6.90;99.90;;;;;;4948522;28;20674;-59
2023/11/17 07:09:23;;;;;;;0.30;0.30;;;7.00;99.90;;;;;;4936081;29;20188;-59
2023/11/17 07:11:58;;;;;;;0.40;0.40;;;7.00;99.90;;;;;;4921255;29;20221;-58
2023/11/17 07:14:26;;;;;;;0.73;0.73;;;7.00;99.90;;;;;;4935846;29;20181;-59
2023/11/17 07:16:54;;;;;;;0.50;0.50;;;7.00;99.90;;;;;;4936008;29;20694;-59
2023/11/17 07:19:20;;;;;;;0.93;0.50;;;6.90;99.90;;;;;;4935930;29;20177;-59
2023/11/17 07:21:48;;;;;;;0.40;0.40;;;6.80;99.90;;;;;;4936086;29;20224;-59
2023/11/17 07:24:14;;;;;;;0.30;0.30;;;6.80;99.90;;;;;;4935875;29;20180;-59
2023/11/17 07:26:41;;;;;;;0.30;0.30;;;6.70;99.90;;;;;;4935663;29;20193;-59
2023/11/17 07:29:07;;;;;;;0.30;0.30;;;6.60;99.90;;;;;;4935681;29;20183;-59
2023/11/17 07:31:39;;;;;;;0.30;0.30;;;6.60;99.90;;;;;;4935636;29;20727;-59
2023/11/17 07:34:09;;;;;;;0.30;0.30;;;6.70;99.90;;;;;;4935268;29;20704;-59
2023/11/17 07:36:39;;;;;;;0.40;0.40;;;6.80;99.90;;;;;;4935399;29;20214;-59
2023/11/17 07:39:06;;;;;;;0.40;0.40;;;6.90;99.90;;;;;;4935471;29;20546;-59
2023/11/17 07:41:33;;;;;;;0.30;0.30;;;7.00;99.90;;;;;;4934282;29;20194;-59
2023/11/17 07:44:01;;;;;;;0.50;0.40;;;7.10;99.90;;;;;;4935205;29;20185;-59
2023/11/17 07:46:30;;;;;;;0.30;0.30;;;7.20;99.90;;;;;;4935717;29;20190;-59
2023/11/17 07:48:56;;;;;;;0.30;0.30;;;7.00;99.90;;;;;;4935210;29;20549;-59
2023/11/17 07:51:22;;;;;;;6.03;1.60;;;6.90;99.90;;;;;;4935118;29;20208;-59
2023/11/17 07:53:47;;;;;;;0.40;0.40;;;6.70;99.90;;;;;;4934876;29;20794;-58
2023/11/17 07:56:14;;;;;;;0.40;0.40;;;6.80;99.90;;;;;;4935050;29;20463;-59
2023/11/17 07:58:40;;;;;;;0.60;0.52;;;6.90;99.90;;;;;;4918272;29;20189;-59
2023/11/17 08:01:09;;;;;;;0.30;0.30;;;6.90;99.90;;;;;;4934983;29;20250;-59
2023/11/17 08:03:39;;;;;;;0.30;0.30;;;6.90;99.90;;;;;;4934766;29;20177;-59
2023/11/17 08:06:05;;;;;;;1.63;0.50;;;6.90;99.90;;;;;;4934924;29;20686;-59
2023/11/17 08:08:32;;;;;;;0.40;0.40;;;7.00;99.90;;;;;;4934914;29;20189;-59
2023/11/17 08:10:59;;;;;;;0.40;0.40;;;7.10;99.90;;;;;;4935221;29;20194;-58
2023/11/17 08:13:25;;;;;;;0.30;0.30;;;7.20;99.90;;;;;;4934576;29;20188;-59
2023/11/17 08:15:51;;;;;;;0.30;0.30;;;7.20;99.90;;;;;;4917736;29;20221;-59
2023/11/17 08:18:18;;;;;;;0.50;0.50;;;7.10;99.90;;;;;;4934988;29;20685;-59
2023/11/17 08:20:45;;;;;;;0.68;0.68;;;7.10;99.90;;;;;;4934582;29;20830;-59
2023/11/17 08:23:11;;;;;;;0.38;0.38;;;7.10;99.90;;;;;;4934493;29;20621;-59
2023/11/17 08:25:37;;;;;;;0.50;0.50;;;7.00;99.90;;;;;;4934697;29;20265;-59
2023/11/17 08:28:04;;;;;;;0.80;0.80;;;7.00;99.90;;;;;;4934529;29;20784;-59
2023/11/17 08:30:30;;;;;;;0.30;0.30;;;7.10;99.90;;;;;;4917476;29;20486;-59
2023/11/17 08:32:55;;;;;;;0.30;0.30;;;7.20;99.90;;;;;;4917432;29;20187;-59
2023/11/17 08:35:22;;;;;;;0.50;0.50;;;7.10;99.90;;;;;;4934496;29;20201;-59
2023/11/17 08:37:55;;;;;;;0.40;0.40;;;7.10;99.90;;;;;;4917634;29;20740;-59
2023/11/17 08:40:22;;;;;;;0.30;0.30;;;7.10;99.90;;;;;;4934512;29;20292;-59
2023/11/17 08:42:48;;;;;;;0.75;0.75;;;7.10;99.90;;;;;;4934223;29;20175;-58
2023/11/17 08:45:15;;;;;;;0.30;0.30;;;7.20;99.90;;;;;;4934399;29;20188;-60
2023/11/17 08:47:45;;;;;;;0.30;0.30;;;7.30;99.90;;;;;;4934587;29;20277;-59
2023/11/17 08:50:12;;;;;;;0.40;0.40;;;7.20;99.90;;;;;;4934187;29;20228;-59
2023/11/17 08:52:42;;;;;;;0.30;0.30;;;7.20;99.90;;;;;;4933815;29;20193;-59
2023/11/17 08:55:10;;;;;;;0.40;0.40;;;7.20;99.90;;;;;;4934243;29;20210;-59
2023/11/17 08:57:36;;;;;;;0.50;0.50;;;7.10;99.90;;;;;;4934215;29;20174;-58
2023/11/17 09:00:12;;;;;;;0.30;0.30;;;7.10;99.90;;;;;;4934116;29;20209;-59
2023/11/17 09:02:45;;;;;;;1.08;0.70;;;7.10;99.90;;;;;;4934018;29;20181;-59
2023/11/17 09:05:15;;;;;;;0.60;0.52;;;7.00;99.90;;;;;;4934027;29;20697;-58
2023/11/17 09:07:42;;;;;;;0.30;0.30;;;6.90;99.90;;;;;;4934210;29;20650;-58
2023/11/17 09:10:11;;;;;;;0.55;0.55;;;6.70;99.90;;;;;;4934039;29;20611;-59
2023/11/17 09:12:42;;;;;;;0.45;0.45;;;6.70;99.90;;;;;;4933876;29;20208;-58
2023/11/17 09:15:16;;;;;;;0.30;0.30;;;6.80;99.90;;;;;;4934071;29;20221;-59
2023/11/17 09:17:43;;;;;;;0.40;0.40;;;6.90;99.90;;;;;;4934093;29;20678;-59
2023/11/17 09:20:13;;;;;;;0.30;0.30;;;7.00;99.90;;;;;;4933977;29;20225;-59
2023/11/17 09:22:39;;;;;;;0.40;0.40;;;7.10;99.90;;;;;;4933715;29;20176;-58
2023/11/17 09:25:15;;;;;;;0.40;0.40;;;7.30;99.90;;;;;;4934137;29;20597;-59
2023/11/17 09:27:44;;;;;;;0.30;0.30;;;7.30;99.90;;;;;;4933957;29;20197;-58
2023/11/17 09:30:14;;;;;;;0.40;0.38;;;7.30;99.90;;;;;;4934003;29;20256;-59
2023/11/17 09:32:43;;;;;;;0.30;0.30;;;7.30;99.90;;;;;;4933720;29;20182;-59
2023/11/17 09:35:15;;;;;;;0.40;0.40;;;7.10;99.90;;;;;;4933802;29;20201;-59
2023/11/17 09:37:51;;;;;;;0.70;0.70;;;7.10;99.90;;;;;;4936357;29;20244;-59
2023/11/17 09:40:20;;;;;;;0.60;0.60;;;7.10;99.90;;;;;;4951739;29;20287;-59
2023/11/17 09:43:10;;;;;;;2.05;0.52;;;7.20;99.90;;;;;;4933233;29;20188;-59
2023/11/17 09:45:39;;;;;;;0.40;0.40;;;7.20;99.90;;;;;;4941836;29;20216;-59
2023/11/17 09:48:07;;;;;;;0.50;0.50;;;7.20;99.90;;;;;;4942494;29;20203;-59
2023/11/17 09:50:33;;;;;;;0.30;0.30;;;7.10;99.90;;;;;;4933724;29;20287;-59
2023/11/17 09:53:00;;;;;;;0.30;0.30;;;7.10;99.90;;;;;;4933565;29;20190;-59
2023/11/17 09:55:30;;;;;;;0.47;0.47;;;7.20;99.90;;;;;;4934003;29;20230;-59
2023/11/17 09:58:02;;;;;;;0.30;0.30;;;7.30;99.90;;;;;;4933598;29;20192;-59
2023/11/17 10:00:28;;;;;;;0.40;0.40;;;7.40;99.90;;;;;;4933690;29;20193;-59
2023/11/17 10:02:56;;;;;;;0.40;0.40;;;7.40;99.90;;;;;;4933763;29;20170;-58
2023/11/17 10:05:23;;;;;;;0.30;0.30;;;7.40;99.90;;;;;;4935788;29;20663;-59
2023/11/17 10:07:53;;;;;;;0.30;0.30;;;7.40;99.90;;;;;;4937104;29;20199;-59
2023/11/17 10:10:20;;;;;;;0.50;0.50;;;7.30;99.90;;;;;;4936972;29;20197;-59
2023/11/17 10:12:56;;;;;;;0.30;0.30;;;7.40;99.90;;;;;;4937134;29;20197;-59
2023/11/17 10:15:26;;;;;;;0.60;0.60;;;7.50;99.90;;;;;;4936949;29;20213;-59
2023/11/17 10:17:59;;;;;;;0.40;0.40;;;7.60;99.90;;;;;;4937062;29;20181;-59
2023/11/17 10:20:26;;;;;;;0.50;0.50;;;7.60;99.90;;;;;;4937209;29;20301;-59
2023/11/17 10:22:54;;;;;;;1.02;0.88;;;7.60;99.90;;;;;;4936515;29;20724;-58
2023/11/17 10:25:24;;;;;;;0.50;0.50;;;7.70;99.90;;;;;;4937107;29;20682;-58
2023/11/17 10:27:50;;;;;;;4.00;0.52;;;7.60;99.90;;;;;;4936584;29;20652;-58
2023/11/17 10:30:17;;;;;;;0.60;0.60;;;7.70;99.90;;;;;;4936764;29;20198;-58
2023/11/17 10:32:54;;;;;;;0.30;0.30;;;7.60;99.90;;;;;;4936470;29;20236;-58
2023/11/17 10:35:25;;;;;;;0.40;0.40;;;7.50;99.90;;;;;;4936678;29;20291;-57
2023/11/17 10:37:54;;;;;;;0.70;0.70;;;7.40;99.90;;;;;;4936783;29;20539;-57
2023/11/17 10:40:35;;;;;;;0.68;0.68;;;7.40;99.90;;;;;;4936763;29;20246;-58
2023/11/17 10:43:01;;;;;;;0.40;0.40;;;7.50;99.90;;;;;;4936249;29;20189;-58
2023/11/17 10:45:27;;;;;;;0.77;0.77;;;7.60;99.90;;;;;;4936533;29;20174;-58
2023/11/17 10:47:52;;;;;;;0.30;0.30;;;7.70;99.90;;;;;;4936477;29;20421;-58
2023/11/17 10:50:18;;;;;;;0.50;0.50;;;7.90;99.90;;;;;;4936240;29;20197;-58
2023/11/17 10:52:43;;;;;;;0.80;0.50;;;7.80;99.90;;;;;;4936027;29;20170;-57
2023/11/17 10:55:10;;;;;;;0.60;0.40;;;7.70;99.90;;;;;;4919254;29;20714;-56
2023/11/17 10:57:36;;;;;;;0.40;0.40;;;7.70;99.90;;;;;;4936250;29;20605;-58
2023/11/17 11:00:17;;;;;;;0.97;0.97;;;7.90;99.90;;;;;;4936067;29;20206;-58
2023/11/17 11:02:44;;;;;;;1.30;1.30;;;7.70;99.90;;;;;;4935898;29;20198;-58
2023/11/17 11:05:10;;;;;;;0.47;0.47;;;7.70;99.90;;;;;;4935925;29;20217;-58
2023/11/17 11:07:45;;;;;;;1.33;1.23;;;7.60;99.90;;;;;;4936061;29;20368;-58
2023/11/17 11:10:15;;;;;;;0.30;0.30;;;7.70;99.90;;;;;;4936058;29;20228;-57
2023/11/17 11:12:41;;;;;;;1.30;1.20;;;7.70;99.90;;;;;;4935019;29;20198;-58
2023/11/17 11:15:14;;;;;;;0.40;0.40;;;7.70;99.90;;;;;;4935534;29;20210;-55
2023/11/17 11:17:56;;;;;;;0.30;0.30;;;7.70;99.90;;;;;;4935948;29;20221;-58
2023/11/17 11:20:22;;;;;;;0.70;0.70;;;7.70;99.90;;;;;;4935723;29;20210;-58
2023/11/17 11:22:51;;;;;;;0.70;0.50;;;7.80;99.90;;;;;;4935669;29;20177;-58
2023/11/17 11:25:19;;;;;;;0.30;0.30;;;8.10;99.90;;;;;;4919085;29;20494;-58
2023/11/17 11:27:50;;;;;;;0.65;0.57;;;8.20;99.90;;;;;;4935602;29;20224;-58
2023/11/17 11:30:18;;;;;;;0.30;0.30;;;8.10;99.90;;;;;;4935743;29;20197;-58
2023/11/17 11:32:47;;;;;;;0.60;0.50;;;8.10;99.90;;;;;;4935038;29;20194;-58
2023/11/17 11:35:13;;;;;;;6.20;5.60;;;8.20;99.90;;;;;;4918433;29;20197;-58
2023/11/17 11:37:39;;;;;;;4.85;4.22;;;8.20;99.90;;;;;;4935570;29;20237;-58
2023/11/17 11:40:11;;;;;;;2.33;0.82;;;8.30;99.90;;;;;;4935905;29;20200;-58
2023/11/17 11:42:41;;;;;;;0.73;0.60;;;8.40;99.90;;;;;;4918146;29;20210;-58
2023/11/17 11:45:16;;;;;;;0.40;0.40;;;8.40;99.90;;;;;;4915039;29;20187;-58
2023/11/17 11:47:49;;;;;;;0.40;0.40;;;8.50;99.90;;;;;;4933798;29;20233;-58
2023/11/17 11:50:20;;;;;;;1.00;0.98;;;8.50;99.40;;;;;;4935205;29;20206;-58
2023/11/17 11:52:55;;;;;;;0.30;0.30;;;8.60;99.30;;;;;;4935096;29;20234;-58
2023/11/17 11:55:21;;;;;;;0.68;0.68;;;8.70;99.80;;;;;;4935113;29;20284;-58
2023/11/17 11:57:58;;;;;;;0.30;0.30;;;8.60;99.60;;;;;;4918010;29;20197;-58
2023/11/17 12:00:26;;;;;;;0.30;0.30;;;8.40;99.00;;;;;;4917914;29;20205;-58
2023/11/17 12:02:59;;;;;;;6.90;3.92;;;8.30;99.40;;;;;;4934700;29;20205;-58
2023/11/17 12:05:30;;;;;;;0.73;0.70;;;8.20;99.20;;;;;;4935058;29;20657;-58
2023/11/17 12:07:57;;;;;;;0.90;0.90;;;8.10;99.60;;;;;;4935195;29;20625;-57
2023/11/17 12:10:23;;;;;;;0.45;0.45;;;8.10;99.80;;;;;;4935066;29;20581;-59
2023/11/17 12:12:55;;;;;;;0.60;0.60;;;8.00;99.80;;;;;;4934622;29;20190;-59
2023/11/17 12:15:20;;;;;;;1.25;1.15;;;7.70;99.90;;;;;;4934643;29;20297;-59
2023/11/17 12:17:53;;;;;;;0.50;0.50;;;7.50;99.90;;;;;;4934698;29;20261;-59
2023/11/17 12:20:26;;;;;;;1.17;0.88;;;7.50;99.90;;;;;;4934578;29;20213;-59
2023/11/17 12:23:05;;;;;;;0.40;0.40;;;7.60;99.90;;;;;;4934333;29;20229;-59
2023/11/17 12:25:31;;;;;;;0.40;0.40;;;7.70;99.90;;;;;;4918355;29;20660;-59
2023/11/17 12:27:58;;;;;;;0.43;0.43;;;7.60;99.90;;;;;;4934039;29;20197;-59
2023/11/17 12:30:27;;;;;;;0.77;0.68;;;7.60;99.90;;;;;;4934593;29;20436;-57
2023/11/17 12:32:54;;;;;;;0.40;0.40;;;7.50;99.90;;;;;;4934154;29;20552;-59
2023/11/17 12:35:26;;;;;;;1.27;1.17;;;7.50;99.90;;;;;;4934564;29;20224;-59
2023/11/17 12:37:52;;;;;;;2.30;2.20;;;7.30;99.90;;;;;;4934515;29;20182;-59
2023/11/17 12:40:19;;;;;;;2.00;0.70;;;7.20;99.90;;;;;;4917305;29;20588;-57
2023/11/17 12:42:49;;;;;;;0.65;0.65;;;7.30;99.90;;;;;;4917028;29;20205;-58
2023/11/17 12:45:16;;;;;;;9.32;3.75;;;7.30;99.90;;;;;;4934515;29;20181;-59
2023/11/17 12:47:46;;;;;;;0.60;0.60;;;7.20;99.90;;;;;;4934392;29;20201;-59
2023/11/17 12:50:12;;;;;;;0.68;0.68;;;7.40;99.90;;;;;;4934183;29;20209;-59
2023/11/17 12:52:54;;;;;;;0.57;0.57;;;7.50;99.90;;;;;;4934185;29;20258;-59
2023/11/17 12:55:20;;;;;;;0.40;0.40;;;7.50;99.90;;;;;;4934237;29;20224;-58
2023/11/17 12:57:46;;;;;;;0.40;0.40;;;7.60;99.90;;;;;;4934244;29;20186;-59
2023/11/17 13:00:21;;;;;;;1.10;1.10;;;7.60;99.90;;;;;;4934071;29;20673;-59
2023/11/17 13:02:46;;;;;;;0.77;0.77;;;7.60;99.90;;;;;;4933979;29;20271;-59
2023/11/17 13:05:14;;;;;;;0.70;0.70;;;7.50;99.90;;;;;;4934222;29;20225;-59
2023/11/17 13:07:42;;;;;;;3.25;3.00;;;7.40;99.90;;;;;;4934114;29;20410;-59